Time;durP1;ratioP1;P1;durP2;ratioP2;P2;SDS_P1;SDS_P2;PMS_P1;PMS_P2;Temp;Humidity;BMP_temperature;BMP_pressure;BME280_temperature;BME280_humidity;BME280_pressure;Samples;Min_cycle;Max_cycle;Signal;HPM_P1;HPM_P2
2022/01/03 00:00:07;;;;;;;;;;;11.00;99.90;;;;;;5114404;28;19927;-78
2022/01/03 00:02:33;;;;;;;;;;;11.00;99.90;;;;;;5111506;28;19916;-79
2022/01/03 00:04:59;;;;;;;;;;;10.90;99.90;;;;;;5113788;28;19916;-78
2022/01/03 00:07:25;;;;;;;;;;;10.80;99.90;;;;;;5113601;28;19966;-78
2022/01/03 00:09:51;;;;;;;;;;;10.80;99.90;;;;;;5097534;28;19912;-81
2022/01/03 00:12:19;;;;;;;;;;;10.80;99.90;;;;;;5112845;28;19915;-76
2022/01/03 00:14:45;;;;;;;;;;;10.80;99.90;;;;;;5111781;28;19912;-78
2022/01/03 00:17:11;;;;;;;;;;;10.80;99.90;;;;;;5111061;28;20522;-78
2022/01/03 00:19:36;;;;;;;;;;;10.80;99.90;;;;;;5111426;28;19974;-77
2022/01/03 00:22:05;;;;;;;;;;;10.80;99.90;;;;;;5111041;28;19969;-78
2022/01/03 00:24:31;;;;;;;;;;;10.80;99.90;;;;;;5091653;28;19916;-78
2022/01/03 00:27:00;;;;;;;;;;;10.80;99.90;;;;;;5104382;28;19915;-78
2022/01/03 00:29:28;;;;;;;;;;;10.80;99.90;;;;;;5110979;28;19911;-78
2022/01/03 00:31:55;;;;;;;;;;;10.80;99.90;;;;;;5111057;28;20344;-79
2022/01/03 00:34:21;;;;;;;;;;;10.80;99.90;;;;;;5110382;28;20369;-78
2022/01/03 00:36:48;;;;;;;;;;;10.80;99.90;;;;;;5110491;28;19998;-78
2022/01/03 00:39:14;;;;;;;;;;;10.80;99.90;;;;;;5106175;28;19923;-78
2022/01/03 00:41:40;;;;;;;;;;;10.70;99.90;;;;;;5115536;28;19943;-78
2022/01/03 00:44:06;;;;;;;;;;;10.70;99.90;;;;;;5113536;28;19959;-79
2022/01/03 00:46:33;;;;;;;;;;;10.70;99.90;;;;;;5089525;28;20417;-78
2022/01/03 00:48:59;;;;;;;;;;;10.70;99.90;;;;;;5113290;28;19914;-79
2022/01/03 00:51:25;;;;;;;;;;;10.70;99.90;;;;;;5114702;28;20006;-77
2022/01/03 00:53:51;;;;;;;;;;;10.70;99.90;;;;;;5114175;28;20013;-77
2022/01/03 00:56:27;;;;;;;;;;;10.60;99.90;;;;;;5114510;28;19916;-78
2022/01/03 00:59:13;;;;;;;;;;;10.50;99.90;;;;;;5113709;28;20023;-78
2022/01/03 01:01:43;;;;;;;;;;;10.50;99.90;;;;;;5096162;28;19912;-77
2022/01/03 01:04:09;;;;;;;;;;;10.40;99.90;;;;;;5113386;28;20249;-79
2022/01/03 01:06:36;;;;;;;;;;;10.40;99.90;;;;;;5114330;28;19912;-79
2022/01/03 01:09:03;;;;;;;;;;;10.40;99.90;;;;;;5113954;28;19912;-79
2022/01/03 01:11:30;;;;;;;;;;;10.40;99.90;;;;;;5114141;28;20372;-79
2022/01/03 01:13:56;;;;;;;;;;;10.40;99.90;;;;;;5115853;28;19908;-83
2022/01/03 01:16:22;;;;;;;;;;;10.30;99.90;;;;;;5113086;28;19960;-78
2022/01/03 01:18:48;;;;;;;;;;;10.30;99.90;;;;;;5095051;28;19912;-78
2022/01/03 01:21:14;;;;;;;;;;;10.30;99.90;;;;;;5094906;28;19928;-78
2022/01/03 01:23:41;;;;;;;;;;;10.20;99.90;;;;;;5114041;28;19920;-78
2022/01/03 01:28:51;;;;;;;;;;;10.20;99.90;;;;;;5107844;28;20000;-79
2022/01/03 01:31:24;;;;;;;;;;;10.20;99.90;;;;;;5106993;28;19977;-79
2022/01/03 01:33:54;;;;;;;;;;;10.30;99.90;;;;;;5115241;28;20394;-78
2022/01/03 01:36:22;;;;;;;;;;;10.30;99.90;;;;;;5114945;28;19918;-78
2022/01/03 01:38:50;;;;;;;;;;;10.20;99.90;;;;;;5113617;28;19911;-78
2022/01/03 01:41:17;;;;;;;;;;;10.20;99.90;;;;;;5115223;28;19999;-79
2022/01/03 01:43:44;;;;;;;;;;;10.30;99.90;;;;;;5113414;28;20446;-78
2022/01/03 01:46:11;;;;;;;;;;;10.30;99.90;;;;;;5096600;28;19923;-78
2022/01/03 01:48:37;;;;;;;;;;;10.30;99.90;;;;;;5113763;28;20288;-79
2022/01/03 01:51:04;;;;;;;;;;;10.30;99.90;;;;;;5112906;28;19966;-79
2022/01/03 01:53:29;;;;;;;;;;;10.20;99.90;;;;;;5096828;28;19916;-78
2022/01/03 01:55:58;;;;;;;;;;;10.20;99.90;;;;;;5096829;28;19919;-78
2022/01/03 01:58:23;;;;;;;;;;;10.30;99.90;;;;;;5111992;28;19927;-79
2022/01/03 02:00:56;;;;;;;;;;;10.30;99.90;;;;;;5101966;28;19928;-78
2022/01/03 02:03:22;;;;;;;;;;;10.30;99.90;;;;;;5092587;28;20374;-78
2022/01/03 02:06:00;;;;;;;;;;;10.30;99.90;;;;;;5092963;28;20002;-78
2022/01/03 02:08:26;;;;;;;;;;;10.30;99.90;;;;;;5092601;28;19908;-78
2022/01/03 02:10:58;;;;;;;;;;;10.20;99.90;;;;;;5107778;28;19951;-79
2022/01/03 02:13:25;;;;;;;;;;;10.30;99.90;;;;;;5113803;28;19908;-78
2022/01/03 02:15:58;;;;;;;;;;;10.30;99.90;;;;;;5113484;28;20264;-78
2022/01/03 02:18:24;;;;;;;;;;;10.30;99.90;;;;;;5113702;28;20099;-78
2022/01/03 02:20:50;;;;;;;;;;;10.40;99.90;;;;;;5120351;27;19927;-78
2022/01/03 02:23:16;;;;;;;;;;;10.30;99.90;;;;;;5115628;27;20072;-78
2022/01/03 02:25:41;;;;;;;;;;;10.40;99.90;;;;;;5116208;27;19937;-79
2022/01/03 02:28:07;;;;;;;;;;;10.40;99.90;;;;;;5115441;27;19957;-80
2022/01/03 02:30:33;;;;;;;;;;;10.40;99.90;;;;;;5134517;27;20235;-79
2022/01/03 02:32:58;;;;;;;;;;;10.40;99.90;;;;;;5115666;27;19919;-79
2022/01/03 02:35:24;;;;;;;;;;;10.40;99.90;;;;;;5115459;27;20438;-78
2022/01/03 02:37:50;;;;;;;;;;;10.30;99.90;;;;;;5115920;27;19960;-79
2022/01/03 02:40:17;;;;;;;;;;;10.20;99.90;;;;;;5133958;27;19911;-78
2022/01/03 02:42:43;;;;;;;;;;;10.20;99.90;;;;;;5115323;27;20022;-78
2022/01/03 02:45:10;;;;;;;;;;;10.10;99.90;;;;;;5098086;27;20002;-79
2022/01/03 02:47:36;;;;;;;;;;;10.10;99.90;;;;;;5116048;27;19907;-78
2022/01/03 02:50:03;;;;;;;;;;;10.10;99.90;;;;;;5115917;27;19907;-78
2022/01/03 02:52:28;;;;;;;;;;;10.00;99.90;;;;;;5114913;27;19915;-78
2022/01/03 02:54:54;;;;;;;;;;;10.00;99.90;;;;;;5115355;27;19967;-78
2022/01/03 02:57:23;;;;;;;;;;;9.90;99.90;;;;;;5115415;27;19915;-78
2022/01/03 03:00:08;;;;;;;;;;;9.90;99.90;;;;;;5133809;27;20368;-78
2022/01/03 03:02:34;;;;;;;;;;;9.80;99.90;;;;;;5114089;27;19911;-79
2022/01/03 03:05:00;;;;;;;;;;;9.80;99.90;;;;;;5115407;27;19938;-78
2022/01/03 03:07:27;;;;;;;;;;;9.80;99.90;;;;;;5133194;27;19908;-78
2022/01/03 03:09:53;;;;;;;;;;;9.90;99.90;;;;;;5133494;27;19915;-78
2022/01/03 03:12:19;;;;;;;;;;;9.90;99.90;;;;;;5115054;27;20374;-79
2022/01/03 03:14:45;;;;;;;;;;;9.90;99.90;;;;;;5114601;27;19908;-79
2022/01/03 03:17:10;;;;;;;;;;;10.00;99.90;;;;;;5115108;27;19922;-83
2022/01/03 03:19:49;;;;;;;;;;;10.00;99.90;;;;;;5114794;27;19926;-78
2022/01/03 03:22:17;;;;;;;;;;;10.10;99.90;;;;;;5114537;27;20132;-78
2022/01/03 03:24:42;;;;;;;;;;;10.20;99.90;;;;;;5132928;27;19911;-78
2022/01/03 03:27:09;;;;;;;;;;;10.20;99.90;;;;;;5098353;27;19918;-79
2022/01/03 03:29:34;;;;;;;;;;;10.20;99.90;;;;;;5114200;27;19912;-79
2022/01/03 03:32:00;;;;;;;;;;;10.20;99.90;;;;;;5114943;28;20006;-78
2022/01/03 03:34:25;;;;;;;;;;;10.10;99.90;;;;;;5113786;28;19916;-79
2022/01/03 03:36:51;;;;;;;;;;;10.10;99.90;;;;;;5115223;28;19911;-78
2022/01/03 03:39:17;;;;;;;;;;;10.00;99.90;;;;;;5132265;28;19955;-80
2022/01/03 03:41:43;;;;;;;;;;;10.00;99.90;;;;;;5097781;28;19922;-79
2022/01/03 03:44:09;;;;;;;;;;;10.10;99.90;;;;;;5115212;28;19937;-79
2022/01/03 03:46:34;;;;;;;;;;;10.10;99.90;;;;;;5132528;28;20376;-78
2022/01/03 03:49:00;;;;;;;;;;;10.20;99.90;;;;;;5115002;28;19915;-78
2022/01/03 03:51:25;;;;;;;;;;;10.20;99.90;;;;;;5093693;28;20279;-79
2022/01/03 03:53:51;;;;;;;;;;;10.20;99.90;;;;;;5111373;28;19912;-79
2022/01/03 03:56:16;;;;;;;;;;;10.20;99.90;;;;;;5112838;28;19922;-80
2022/01/03 03:58:42;;;;;;;;;;;10.20;99.90;;;;;;5097798;28;20323;-79
2022/01/03 04:01:07;;;;;;;;;;;10.20;99.90;;;;;;5092938;28;19926;-78
2022/01/03 04:03:33;;;;;;;;;;;10.20;99.90;;;;;;5110860;28;19927;-78
2022/01/03 04:05:58;;;;;;;;;;;10.10;99.90;;;;;;5113085;28;19916;-78
2022/01/03 04:08:24;;;;;;;;;;;10.10;99.90;;;;;;5096942;28;19911;-78
2022/01/03 04:10:49;;;;;;;;;;;10.10;99.90;;;;;;5114492;28;19960;-78
2022/01/03 04:13:15;;;;;;;;;;;10.20;99.90;;;;;;5116611;27;19916;-78
2022/01/03 04:15:40;;;;;;;;;;;10.20;99.90;;;;;;5136655;27;19993;-79
2022/01/03 04:18:06;;;;;;;;;;;10.30;99.90;;;;;;5097704;28;20352;-79
2022/01/03 04:20:31;;;;;;;;;;;10.30;99.90;;;;;;5097347;28;19984;-80
2022/01/03 04:22:57;;;;;;;;;;;10.30;99.90;;;;;;5118559;27;19916;-78
2022/01/03 04:25:22;;;;;;;;;;;10.20;99.90;;;;;;5118224;27;20448;-78
2022/01/03 04:27:48;;;;;;;;;;;10.20;99.90;;;;;;5136575;27;19956;-79
2022/01/03 04:30:13;;;;;;;;;;;10.20;99.90;;;;;;5118515;27;19912;-78
2022/01/03 04:32:39;;;;;;;;;;;10.20;99.90;;;;;;5116234;27;19919;-80
2022/01/03 04:35:05;;;;;;;;;;;10.20;99.90;;;;;;5118142;27;19911;-78
2022/01/03 04:37:30;;;;;;;;;;;10.20;99.90;;;;;;5099927;27;19924;-78
2022/01/03 04:39:56;;;;;;;;;;;10.30;99.90;;;;;;5136376;27;19916;-79
2022/01/03 04:42:21;;;;;;;;;;;10.30;99.90;;;;;;5100790;27;19915;-83
2022/01/03 04:44:47;;;;;;;;;;;10.40;99.90;;;;;;5117465;27;19960;-79
2022/01/03 04:47:12;;;;;;;;;;;10.40;99.90;;;;;;5118204;27;19912;-78
2022/01/03 04:49:38;;;;;;;;;;;10.40;99.90;;;;;;5097150;27;19916;-79
2022/01/03 04:52:04;;;;;;;;;;;10.50;99.90;;;;;;5136349;27;19922;-78
2022/01/03 04:54:29;;;;;;;;;;;10.50;99.90;;;;;;5135903;27;19916;-78
2022/01/03 04:56:59;;;;;;;;;;;10.40;99.90;;;;;;5117523;27;20010;-78
2022/01/03 04:59:24;;;;;;;;;;;10.50;99.90;;;;;;5096997;28;19924;-83
2022/01/03 05:01:50;;;;;;;;;;;10.40;99.90;;;;;;5115889;28;19928;-78
2022/01/03 05:04:15;;;;;;;;;;;10.40;99.90;;;;;;5097256;28;20370;-78
2022/01/03 05:06:41;;;;;;;;;;;10.40;99.90;;;;;;5116925;27;19962;-78
2022/01/03 05:09:06;;;;;;;;;;;10.40;99.90;;;;;;5100031;27;19927;-78
2022/01/03 05:11:32;;;;;;;;;;;10.40;99.90;;;;;;5117510;27;19937;-78
2022/01/03 05:13:57;;;;;;;;;;;10.30;99.90;;;;;;5117522;27;20382;-78
2022/01/03 05:16:23;;;;;;;;;;;10.30;99.90;;;;;;5096950;28;19922;-78
2022/01/03 05:18:48;;;;;;;;;;;10.30;99.90;;;;;;5116432;27;19912;-79
2022/01/03 05:21:15;;;;;;;;;;;10.40;99.90;;;;;;5100416;27;19929;-79
2022/01/03 05:23:41;;;;;;;;;;;10.40;99.90;;;;;;5099501;28;19915;-78
2022/01/03 05:26:06;;;;;;;;;;;10.40;99.90;;;;;;5135813;27;19911;-78
2022/01/03 05:28:32;;;;;;;;;;;10.40;99.90;;;;;;5116492;27;19926;-78
2022/01/03 05:30:57;;;;;;;;;;;10.40;99.90;;;;;;5116972;27;20367;-78
2022/01/03 05:33:23;;;;;;;;;;;10.40;99.90;;;;;;5100223;27;19911;-78
2022/01/03 05:35:48;;;;;;;;;;;10.40;99.90;;;;;;5116596;27;20023;-79
2022/01/03 05:38:14;;;;;;;;;;;10.40;99.90;;;;;;5099553;27;19919;-80
2022/01/03 05:40:39;;;;;;;;;;;10.50;99.90;;;;;;5116516;27;19972;-80
2022/01/03 05:43:05;;;;;;;;;;;10.40;99.90;;;;;;5100022;27;19922;-81
2022/01/03 05:45:31;;;;;;;;;;;10.50;99.90;;;;;;5135079;27;20267;-81
2022/01/03 05:47:56;;;;;;;;;;;10.50;99.90;;;;;;5135220;27;19911;-80
2022/01/03 05:50:22;;;;;;;;;;;10.50;99.90;;;;;;5116402;27;19922;-80
2022/01/03 05:52:47;;;;;;;;;;;10.50;99.90;;;;;;5099425;27;19911;-81
2022/01/03 05:55:13;;;;;;;;;;;10.50;99.90;;;;;;5116982;27;19999;-80
2022/01/03 05:57:42;;;;;;;;;;;10.50;99.90;;;;;;5116006;27;19992;-81
2022/01/03 06:00:09;;;;;;;;;;;10.50;99.90;;;;;;5096343;28;19930;-80
2022/01/03 06:02:39;;;;;;;;;;;10.50;99.90;;;;;;5113158;28;19915;-80
2022/01/03 06:05:07;;;;;;;;;;;10.50;99.90;;;;;;5115464;27;20002;-80
2022/01/03 06:07:32;;;;;;;;;;;10.50;99.90;;;;;;5099488;27;20351;-82
2022/01/03 06:09:58;;;;;;;;;;;10.50;99.90;;;;;;5116010;27;19924;-81
2022/01/03 06:12:23;;;;;;;;;;;10.50;99.90;;;;;;5097792;27;19930;-80
2022/01/03 06:14:49;;;;;;;;;;;10.50;99.90;;;;;;5098939;27;19976;-80
2022/01/03 06:17:16;;;;;;;;;;;10.50;99.90;;;;;;5134988;27;19908;-80
2022/01/03 06:19:42;;;;;;;;;;;10.50;99.90;;;;;;5115834;27;19985;-80
2022/01/03 06:22:09;;;;;;;;;;;10.50;99.90;;;;;;5134064;27;20383;-80
2022/01/03 06:24:35;;;;;;;;;;;10.50;99.90;;;;;;5115585;27;19911;-82
2022/01/03 06:27:00;;;;;;;;;;;10.50;99.90;;;;;;5116293;27;20382;-79
2022/01/03 06:29:26;;;;;;;;;;;10.40;99.90;;;;;;5116027;27;20352;-79
2022/01/03 06:31:51;;;;;;;;;;;10.40;99.90;;;;;;5114082;27;19911;-80
2022/01/03 06:34:17;;;;;;;;;;;10.30;99.90;;;;;;5115921;27;20436;-81
2022/01/03 06:36:43;;;;;;;;;;;10.20;99.90;;;;;;5114469;27;19907;-80
2022/01/03 06:39:10;;;;;;;;;;;10.20;99.90;;;;;;5115521;27;19927;-80
2022/01/03 06:41:35;;;;;;;;;;;10.20;99.90;;;;;;5115864;27;19949;-82
2022/01/03 06:44:01;;;;;;;;;;;10.20;99.90;;;;;;5114955;27;20306;-80
2022/01/03 06:46:27;;;;;;;;;;;10.20;99.90;;;;;;5116051;27;20328;-80
2022/01/03 06:48:52;;;;;;;;;;;10.20;99.90;;;;;;5094818;28;19916;-80
2022/01/03 06:51:18;;;;;;;;;;;10.30;99.90;;;;;;5095289;28;19996;-80
2022/01/03 06:53:43;;;;;;;;;;;10.30;99.90;;;;;;5103227;28;19916;-81
2022/01/03 06:56:09;;;;;;;;;;;10.30;99.90;;;;;;5078625;28;19912;-81
2022/01/03 06:58:35;;;;;;;;;;;10.30;99.90;;;;;;5112041;27;19918;-84
2022/01/03 07:01:02;;;;;;;;;;;10.30;99.90;;;;;;5115375;27;19922;-80
2022/01/03 07:03:27;;;;;;;;;;;10.40;99.90;;;;;;5115171;27;19956;-80
2022/01/03 07:05:53;;;;;;;;;;;10.40;99.90;;;;;;5114806;27;19915;-80
2022/01/03 07:08:21;;;;;;;;;;;10.40;99.90;;;;;;5114694;27;19922;-80
2022/01/03 07:10:48;;;;;;;;;;;10.40;99.90;;;;;;5111888;27;19915;-81
2022/01/03 07:13:13;;;;;;;;;;;10.30;99.90;;;;;;5090725;27;19923;-80
2022/01/03 07:21:07;;;;;;;;;;;10.30;99.90;;;;;;5114365;27;19988;-81
2022/01/03 07:23:34;;;;;;;;;;;10.20;99.90;;;;;;5103057;28;20356;-80
2022/01/03 07:25:59;;;;;;;;;;;10.30;99.90;;;;;;5100639;28;19994;-80
2022/01/03 07:28:25;;;;;;;;;;;10.30;99.90;;;;;;5086378;28;20784;-81
2022/01/03 07:30:51;;;;;;;;;;;10.30;99.90;;;;;;5101249;28;19919;-80
2022/01/03 07:33:16;;;;;;;;;;;10.30;99.90;;;;;;5099640;28;19918;-80
2022/01/03 07:35:42;;;;;;;;;;;10.40;99.90;;;;;;5100420;28;20373;-80
2022/01/03 07:38:07;;;;;;;;;;;10.40;99.90;;;;;;5088562;28;20102;-81
2022/01/03 07:40:33;;;;;;;;;;;10.40;99.90;;;;;;5087467;28;19930;-80
2022/01/03 07:42:58;;;;;;;;;;;10.40;99.90;;;;;;5099816;28;20007;-81
2022/01/03 07:45:25;;;;;;;;;;;10.40;99.90;;;;;;5101716;28;20278;-82
2022/01/03 07:47:50;;;;;;;;;;;10.40;99.90;;;;;;5102537;28;19924;-81
2022/01/03 07:50:16;;;;;;;;;;;10.40;99.90;;;;;;5086408;28;19984;-81
2022/01/03 07:52:42;;;;;;;;;;;10.40;99.90;;;;;;5103710;28;20444;-82
2022/01/03 07:55:08;;;;;;;;;;;10.40;99.90;;;;;;5104706;28;20039;-80
2022/01/03 07:57:34;;;;;;;;;;;10.40;99.90;;;;;;5100757;28;19974;-81
2022/01/03 08:00:00;;;;;;;;;;;10.40;99.90;;;;;;5100306;28;21422;-82
2022/01/03 08:02:28;;;;;;;;;;;10.30;99.90;;;;;;5086438;28;20793;-81
2022/01/03 08:04:54;;;;;;;;;;;10.40;99.90;;;;;;5086090;28;19927;-81
2022/01/03 08:07:19;;;;;;;;;;;10.40;99.90;;;;;;5084012;28;19924;-80
2022/01/03 08:09:45;;;;;;;;;;;10.40;99.90;;;;;;5083368;28;19930;-83
2022/01/03 08:12:11;;;;;;;;;;;10.40;99.90;;;;;;5103748;28;19959;-80
2022/01/03 08:14:36;;;;;;;;;;;10.50;99.90;;;;;;5089839;28;20010;-79
2022/01/03 08:17:02;;;;;;;;;;;10.50;99.90;;;;;;5089839;28;19942;-79
2022/01/03 08:19:27;;;;;;;;;;;10.50;99.90;;;;;;5105067;28;19935;-81
2022/01/03 08:21:53;;;;;;;;;;;10.50;99.90;;;;;;5119054;27;19927;-80
2022/01/03 08:24:18;;;;;;;;;;;10.60;99.90;;;;;;5093797;27;19923;-80
2022/01/03 08:26:44;;;;;;;;;;;10.50;99.90;;;;;;5093110;27;19915;-81
2022/01/03 08:29:09;;;;;;;;;;;10.50;99.90;;;;;;5123474;27;19922;-79
2022/01/03 08:31:37;;;;;;;;;;;10.50;99.90;;;;;;5125741;27;19955;-79
2022/01/03 08:34:03;;;;;;;;;;;10.50;99.90;;;;;;5093428;27;19916;-81
2022/01/03 08:36:28;;;;;;;;;;;10.60;99.90;;;;;;5107297;27;19925;-83
2022/01/03 08:38:54;;;;;;;;;;;10.60;99.90;;;;;;5093960;27;20002;-80
2022/01/03 08:41:19;;;;;;;;;;;10.60;99.90;;;;;;5108124;27;20383;-80
2022/01/03 08:43:45;;;;;;;;;;;10.60;99.90;;;;;;5094316;27;19915;-79
2022/01/03 08:46:10;;;;;;;;;;;10.60;99.90;;;;;;5093250;27;20002;-80
2022/01/03 08:48:36;;;;;;;;;;;10.60;99.90;;;;;;5093997;27;20319;-80
2022/01/03 08:51:02;;;;;;;;;;;10.70;99.90;;;;;;5108147;27;20006;-78
2022/01/03 08:53:27;;;;;;;;;;;10.70;99.90;;;;;;5105654;27;19998;-79
2022/01/03 08:55:54;;;;;;;;;;;10.80;99.90;;;;;;5107247;27;19915;-77
2022/01/03 08:58:19;;;;;;;;;;;10.80;99.90;;;;;;5106321;27;20468;-78
2022/01/03 09:00:45;;;;;;;;;;;10.80;99.90;;;;;;5093121;27;19931;-79
2022/01/03 09:03:11;;;;;;;;;;;11.00;99.90;;;;;;5124754;27;19919;-78
2022/01/03 09:05:36;;;;;;;;;;;11.00;99.90;;;;;;5106913;27;19919;-78
2022/01/03 09:08:02;;;;;;;;;;;11.10;99.90;;;;;;5091672;27;20063;-79
2022/01/03 09:10:28;;;;;;;;;;;11.10;99.90;;;;;;5094440;27;19934;-78
2022/01/03 09:12:53;;;;;;;;;;;11.10;99.90;;;;;;5106187;27;19915;-79
2022/01/03 09:15:19;;;;;;;;;;;11.10;99.90;;;;;;5107592;27;19918;-79
2022/01/03 09:17:45;;;;;;;;;;;11.20;99.90;;;;;;5091875;27;20415;-80
2022/01/03 09:20:10;;;;;;;;;;;11.20;99.90;;;;;;5103932;27;20115;-80
2022/01/03 09:22:41;;;;;;;;;;;11.20;99.90;;;;;;5093076;27;19927;-80
2022/01/03 09:30:17;;;;;;;;;;;11.20;99.90;;;;;;5124963;27;20828;-80
2022/01/03 09:32:43;;;;;;;;;;;11.20;99.90;;;;;;5091793;27;20046;-79
2022/01/03 09:35:09;;;;;;;;;;;11.20;99.90;;;;;;5104127;27;20275;-80
2022/01/03 09:37:35;;;;;;;;;;;11.30;99.90;;;;;;5106873;27;19919;-80
2022/01/03 09:40:01;;;;;;;;;;;11.40;99.90;;;;;;5104513;27;19915;-79
2022/01/03 09:42:27;;;;;;;;;;;11.50;99.90;;;;;;5109337;27;19919;-79
2022/01/03 09:44:53;;;;;;;;;;;11.60;99.70;;;;;;5107320;27;19967;-79
2022/01/03 09:47:20;;;;;;;;;;;11.60;99.70;;;;;;5092379;27;19935;-80
2022/01/03 09:49:46;;;;;;;;;;;11.70;99.50;;;;;;5091907;27;19944;-80
2022/01/03 09:52:12;;;;;;;;;;;11.70;99.30;;;;;;5106219;27;20005;-79
2022/01/03 09:54:37;;;;;;;;;;;11.60;99.30;;;;;;5104162;27;19990;-79
2022/01/03 09:57:04;;;;;;;;;;;11.60;99.40;;;;;;5123579;27;19923;-78
2022/01/03 09:59:30;;;;;;;;;;;11.60;99.60;;;;;;5123007;27;20771;-80
2022/01/03 10:01:56;;;;;;;;;;;11.60;99.40;;;;;;5105173;27;19916;-80
2022/01/03 10:04:22;;;;;;;;;;;11.60;99.70;;;;;;5106287;27;19923;-80
2022/01/03 10:06:48;;;;;;;;;;;11.70;99.70;;;;;;5105464;27;19915;-80
2022/01/03 10:09:14;;;;;;;;;;;11.80;99.50;;;;;;5106275;27;20023;-79
2022/01/03 10:11:39;;;;;;;;;;;11.70;99.30;;;;;;5105695;27;20355;-80
2022/01/03 10:14:05;;;;;;;;;;;11.70;99.20;;;;;;5091298;27;20368;-78
2022/01/03 10:16:31;;;;;;;;;;;11.70;99.30;;;;;;5106621;27;19960;-80
2022/01/03 10:18:57;;;;;;;;;;;11.60;99.30;;;;;;5105540;27;19935;-79
2022/01/03 10:21:42;;;;;;;;;;;11.60;99.40;;;;;;5123115;27;19927;-80
2022/01/03 10:24:08;;;;;;;;;;;11.70;99.60;;;;;;5105810;27;19922;-79
2022/01/03 10:26:36;;;;;;;;;;;11.70;99.40;;;;;;5124420;27;19919;-80
2022/01/03 10:29:25;;;;;;;;;;;11.80;99.30;;;;;;5105574;27;19919;-80
2022/01/03 10:31:55;;;;;;;;;;;11.90;99.20;;;;;;5112313;27;19992;-79
2022/01/03 10:34:23;;;;;;;;;;;12.10;99.10;;;;;;5104544;27;19919;-80
2022/01/03 10:36:50;;;;;;;;;;;12.30;99.10;;;;;;5106187;27;19919;-81
2022/01/03 10:39:16;;;;;;;;;;;12.60;98.50;;;;;;5122654;27;20438;-80
2022/01/03 10:41:41;;;;;;;;;;;12.70;98.20;;;;;;5105036;27;20010;-80
2022/01/03 10:44:07;;;;;;;;;;;12.80;98.00;;;;;;5091193;27;20017;-79
2022/01/03 10:46:34;;;;;;;;;;;12.70;97.70;;;;;;5103967;27;19930;-80
2022/01/03 10:49:07;;;;;;;;;;;12.70;97.60;;;;;;5123834;27;19920;-80
2022/01/03 10:51:33;;;;;;;;;;;12.70;98.00;;;;;;5112920;27;19912;-79
2022/01/03 10:53:58;;;;;;;;;;;12.70;98.00;;;;;;5091322;27;19991;-79
2022/01/03 10:56:32;;;;;;;;;;;12.70;97.70;;;;;;5106000;27;19955;-79
2022/01/03 10:58:59;;;;;;;;;;;12.70;97.70;;;;;;5123359;27;19934;-80
2022/01/03 11:01:26;;;;;;;;;;;12.70;97.70;;;;;;5104096;27;19919;-80
2022/01/03 11:03:53;;;;;;;;;;;12.70;97.60;;;;;;5106620;27;19926;-80
2022/01/03 11:11:33;;;;;;;;;;;12.70;97.90;;;;;;5106345;27;19931;-79
2022/01/03 11:13:59;;;;;;;;;;;12.70;97.80;;;;;;5122695;27;19915;-80
2022/01/03 11:16:29;;;;;;;;;;;12.80;97.90;;;;;;5105079;27;20121;-80
2022/01/03 11:18:55;;;;;;;;;;;12.80;97.90;;;;;;5104033;27;19969;-79
2022/01/03 11:21:23;;;;;;;;;;;12.80;97.60;;;;;;5091301;27;20382;-80
2022/01/03 11:24:00;;;;;;;;;;;12.80;97.70;;;;;;5102722;27;19919;-81
2022/01/03 11:26:28;;;;;;;;;;;12.80;97.90;;;;;;5102892;27;20118;-79
2022/01/03 11:28:54;;;;;;;;;;;12.80;97.90;;;;;;5107693;27;19912;-79
2022/01/03 11:31:20;;;;;;;;;;;12.70;97.70;;;;;;5102649;27;19916;-79
2022/01/03 11:33:47;;;;;;;;;;;12.70;97.70;;;;;;5103791;27;19938;-79
2022/01/03 11:36:13;;;;;;;;;;;12.70;97.80;;;;;;5094654;28;19920;-80
2022/01/03 11:38:39;;;;;;;;;;;12.60;97.80;;;;;;5103698;28;20342;-80
2022/01/03 11:41:06;;;;;;;;;;;12.50;97.80;;;;;;5122648;28;19970;-80
2022/01/03 11:43:32;;;;;;;;;;;12.50;97.90;;;;;;5122135;28;19958;-80
2022/01/03 11:45:58;;;;;;;;;;;12.40;98.00;;;;;;5090124;28;20004;-80
2022/01/03 11:48:28;;;;;;;;;;;12.30;98.20;;;;;;5104251;28;20015;-78
2022/01/03 11:51:02;;;;;;;;;;;12.20;98.30;;;;;;5123053;28;19919;-81
2022/01/03 11:53:28;;;;;;;;;;;12.20;98.50;;;;;;5120413;28;19936;-80
2022/01/03 11:55:55;;;;;;;;;;;12.00;98.90;;;;;;5108052;28;20000;-81
2022/01/03 11:58:46;;;;;;;;;;;11.90;99.30;;;;;;5103202;28;20064;-79
2022/01/03 12:03:57;;;;;;;;;;;11.70;99.80;;;;;;5122454;28;19939;-81
2022/01/03 12:06:24;;;;;;;;;;;11.70;99.90;;;;;;5105098;28;20382;-79
2022/01/03 12:08:54;;;;;;;;;;;11.70;99.90;;;;;;5109938;28;20423;-80
2022/01/03 12:11:23;;;;;;;;;;;11.70;99.90;;;;;;5110768;28;19916;-80
2022/01/03 12:13:48;;;;;;;;;;;11.70;99.90;;;;;;5106882;28;19994;-79
2022/01/03 12:16:14;;;;;;;;;;;11.70;99.90;;;;;;5103926;28;19998;-81
2022/01/03 12:18:55;;;;;;;;;;;11.70;99.90;;;;;;5105243;28;19991;-80
2022/01/03 12:21:40;;;;;;;;;;;11.70;99.90;;;;;;5099834;28;19928;-81
2022/01/03 12:24:25;;;;;;;;;;;11.70;99.80;;;;;;5098794;28;19915;-80
2022/01/03 12:27:23;;;;;;;;;;;11.70;99.70;;;;;;5108604;28;19911;-80
2022/01/03 12:29:58;;;;;;;;;;;11.70;99.70;;;;;;5064865;28;19966;-81
2022/01/03 12:32:30;;;;;;;;;;;11.60;99.70;;;;;;5099976;28;20351;-81
2022/01/03 12:35:12;;;;;;;;;;;11.60;99.70;;;;;;5103374;28;19924;-79
2022/01/03 12:37:39;;;;;;;;;;;11.50;99.80;;;;;;5104970;28;19951;-81
2022/01/03 12:40:04;;;;;;;;;;;11.50;99.80;;;;;;5102669;28;20344;-81
2022/01/03 12:42:53;;;;;;;;;;;11.50;99.80;;;;;;5105228;28;20022;-80
2022/01/03 12:45:39;;;;;;;;;;;11.50;99.90;;;;;;5097144;27;19934;-79
2022/01/03 12:48:11;;;;;;;;;;;11.50;99.90;;;;;;5107340;28;19930;-80
2022/01/03 12:50:51;;;;;;;;;;;11.50;99.90;;;;;;5105248;28;20022;-80
2022/01/03 12:53:23;;;;;;;;;;;11.50;99.90;;;;;;5112310;28;19922;-79
2022/01/03 12:55:50;;;;;;;;;;;11.50;99.90;;;;;;5111988;28;19921;-79
2022/01/03 12:58:18;;;;;;;;;;;11.40;99.90;;;;;;5111796;28;19916;-81
2022/01/03 13:00:44;;;;;;;;;;;11.40;99.90;;;;;;5113498;28;19919;-79
2022/01/03 13:03:21;;;;;;;;;;;11.40;99.90;;;;;;5114560;28;19912;-80
2022/01/03 13:06:05;;;;;;;;;;;11.30;99.90;;;;;;5113120;28;19990;-80
2022/01/03 13:08:40;;;;;;;;;;;11.30;99.90;;;;;;5113179;28;19915;-79
2022/01/03 13:11:08;;;;;;;;;;;11.20;99.90;;;;;;5113861;28;19908;-78
2022/01/03 13:13:34;;;;;;;;;;;11.20;99.90;;;;;;5112859;28;20036;-78
2022/01/03 13:16:15;;;;;;;;;;;11.10;99.90;;;;;;5113567;28;19916;-76
2022/01/03 13:18:43;;;;;;;;;;;11.00;99.90;;;;;;5111367;28;19916;-77
2022/01/03 13:21:12;;;;;;;;;;;11.00;99.90;;;;;;5113536;28;19920;-77
2022/01/03 13:23:38;;;;;;;;;;;11.00;99.90;;;;;;5111143;28;20088;-77
2022/01/03 13:26:03;;;;;;;;;;;11.00;99.90;;;;;;5096354;28;20014;-77
2022/01/03 13:28:29;;;;;;;;;;;11.00;99.90;;;;;;5113394;28;20095;-78
2022/01/03 13:31:03;;;;;;;;;;;11.00;99.90;;;;;;5112852;28;20376;-77
2022/01/03 13:33:29;;;;;;;;;;;11.00;99.90;;;;;;5113799;28;19908;-77
2022/01/03 13:35:58;;;;;;;;;;;11.00;99.90;;;;;;5113127;28;20011;-78
2022/01/03 13:38:24;;;;;;;;;;;11.00;99.90;;;;;;5112204;28;19931;-78
2022/01/03 13:40:50;;;;;;;;;;;10.90;99.90;;;;;;5111803;28;20367;-79
2022/01/03 13:43:18;;;;;;;;;;;10.90;99.90;;;;;;5094824;28;20010;-78
2022/01/03 13:51:00;;;;;;;;;;;10.80;99.90;;;;;;5112960;28;19923;-78
2022/01/03 13:53:26;;;;;;;;;;;10.80;99.90;;;;;;5112077;28;19908;-78
2022/01/03 13:55:53;;;;;;;;;;;10.70;99.90;;;;;;5114055;27;19907;-78
2022/01/03 13:58:20;;;;;;;;;;;10.70;99.90;;;;;;5112302;28;19935;-78
2022/01/03 14:01:05;;;;;;;;;;;10.70;99.90;;;;;;5109546;28;20663;-78
2022/01/03 14:03:31;;;;;;;;;;;10.70;99.90;;;;;;5107879;28;19932;-79
2022/01/03 14:06:16;;;;;;;;;;;10.60;99.90;;;;;;5094263;28;20326;-78
2022/01/03 14:08:42;;;;;;;;;;;10.60;99.90;;;;;;5111355;28;19916;-79
2022/01/03 14:11:13;;;;;;;;;;;10.50;99.90;;;;;;5112521;28;19918;-78
2022/01/03 14:13:39;;;;;;;;;;;10.40;99.90;;;;;;5108018;28;20301;-77
2022/01/03 14:16:09;;;;;;;;;;;10.40;99.90;;;;;;5095285;28;20014;-78
2022/01/03 14:18:41;;;;;;;;;;;10.30;99.90;;;;;;5107161;28;19983;-82
2022/01/03 14:21:15;;;;;;;;;;;10.30;99.90;;;;;;5110043;28;19927;-78
2022/01/03 14:23:41;;;;;;;;;;;10.30;99.90;;;;;;5095862;28;19916;-76
2022/01/03 14:26:11;;;;;;;;;;;10.30;99.90;;;;;;5109376;28;20364;-75
2022/01/03 14:28:40;;;;;;;;;;;10.30;99.90;;;;;;5091434;28;19959;-77
2022/01/03 14:31:06;;;;;;;;;;;10.20;99.90;;;;;;5109564;28;19960;-77
2022/01/03 14:33:34;;;;;;;;;;;10.20;99.90;;;;;;5110961;28;19912;-76
2022/01/03 14:36:08;;;;;;;;;;;10.20;99.90;;;;;;5112952;28;20086;-76
2022/01/03 14:38:34;;;;;;;;;;;10.20;99.90;;;;;;5112495;28;19912;-76
2022/01/03 14:41:01;;;;;;;;;;;10.20;99.90;;;;;;5111641;28;20454;-76
2022/01/03 14:43:27;;;;;;;;;;;10.20;99.90;;;;;;5111426;28;20559;-77